sensor_id;sensor_type;location;lat;lon;timestamp;P1;durP1;ratioP1;P2;durP2;ratioP2
65477;SDS011;53678;39.642;22.430;2023-04-24T00:00:15;16.85;;;10.35;;
65477;SDS011;53678;39.642;22.430;2023-04-24T00:02:43;17.73;;;10.57;;
65477;SDS011;53678;39.642;22.430;2023-04-24T00:05:13;17.88;;;10.65;;
65477;SDS011;53678;39.642;22.430;2023-04-24T00:07:43;13.85;;;10.60;;
65477;SDS011;53678;39.642;22.430;2023-04-24T00:10:12;18.90;;;12.40;;
65477;SDS011;53678;39.642;22.430;2023-04-24T00:12:39;21.50;;;12.52;;
65477;SDS011;53678;39.642;22.430;2023-04-24T00:15:05;17.25;;;12.63;;
65477;SDS011;53678;39.642;22.430;2023-04-24T00:17:31;16.25;;;12.00;;
65477;SDS011;53678;39.642;22.430;2023-04-24T00:19:57;17.90;;;12.27;;
65477;SDS011;53678;39.642;22.430;2023-04-24T00:22:26;17.85;;;11.70;;
65477;SDS011;53678;39.642;22.430;2023-04-24T00:24:53;15.35;;;11.40;;
65477;SDS011;53678;39.642;22.430;2023-04-24T00:27:19;15.50;;;11.15;;
65477;SDS011;53678;39.642;22.430;2023-04-24T00:29:45;19.40;;;11.88;;
65477;SDS011;53678;39.642;22.430;2023-04-24T00:32:11;23.48;;;11.82;;
65477;SDS011;53678;39.642;22.430;2023-04-24T00:34:37;16.55;;;11.93;;
65477;SDS011;53678;39.642;22.430;2023-04-24T00:37:03;29.63;;;12.50;;
65477;SDS011;53678;39.642;22.430;2023-04-24T00:39:29;16.23;;;11.60;;
65477;SDS011;53678;39.642;22.430;2023-04-24T00:41:55;14.25;;;10.73;;
65477;SDS011;53678;39.642;22.430;2023-04-24T00:44:23;14.40;;;11.32;;
65477;SDS011;53678;39.642;22.430;2023-04-24T00:46:49;19.80;;;12.32;;
65477;SDS011;53678;39.642;22.430;2023-04-24T00:49:20;19.95;;;12.27;;
65477;SDS011;53678;39.642;22.430;2023-04-24T00:51:47;30.63;;;13.43;;
65477;SDS011;53678;39.642;22.430;2023-04-24T00:54:14;28.38;;;13.82;;
65477;SDS011;53678;39.642;22.430;2023-04-24T00:56:40;23.02;;;12.98;;
65477;SDS011;53678;39.642;22.430;2023-04-24T00:59:09;22.85;;;13.82;;
65477;SDS011;53678;39.642;22.430;2023-04-24T01:01:35;32.92;;;13.88;;
65477;SDS011;53678;39.642;22.430;2023-04-24T01:04:02;18.95;;;12.63;;
65477;SDS011;53678;39.642;22.430;2023-04-24T01:06:28;20.58;;;12.18;;
65477;SDS011;53678;39.642;22.430;2023-04-24T01:08:57;18.67;;;12.68;;
65477;SDS011;53678;39.642;22.430;2023-04-24T01:11:25;22.70;;;12.43;;
65477;SDS011;53678;39.642;22.430;2023-04-24T01:13:51;19.38;;;13.18;;
65477;SDS011;53678;39.642;22.430;2023-04-24T01:16:18;19.13;;;13.13;;
65477;SDS011;53678;39.642;22.430;2023-04-24T01:18:47;19.00;;;13.15;;
65477;SDS011;53678;39.642;22.430;2023-04-24T01:21:14;18.83;;;12.98;;
65477;SDS011;53678;39.642;22.430;2023-04-24T01:23:44;20.48;;;12.77;;
65477;SDS011;53678;39.642;22.430;2023-04-24T01:26:11;19.75;;;13.18;;
65477;SDS011;53678;39.642;22.430;2023-04-24T01:28:37;16.88;;;12.63;;
65477;SDS011;53678;39.642;22.430;2023-04-24T01:31:05;20.80;;;13.30;;
65477;SDS011;53678;39.642;22.430;2023-04-24T01:33:31;17.92;;;13.60;;
65477;SDS011;53678;39.642;22.430;2023-04-24T01:35:57;20.20;;;14.02;;
65477;SDS011;53678;39.642;22.430;2023-04-24T01:38:23;21.08;;;14.40;;
65477;SDS011;53678;39.642;22.430;2023-04-24T01:40:49;20.10;;;14.13;;
65477;SDS011;53678;39.642;22.430;2023-04-24T01:43:16;16.90;;;13.13;;
65477;SDS011;53678;39.642;22.430;2023-04-24T01:45:46;17.45;;;13.20;;
65477;SDS011;53678;39.642;22.430;2023-04-24T01:48:12;16.17;;;13.13;;
65477;SDS011;53678;39.642;22.430;2023-04-24T01:50:38;17.92;;;12.35;;
65477;SDS011;53678;39.642;22.430;2023-04-24T01:53:05;18.70;;;13.15;;
65477;SDS011;53678;39.642;22.430;2023-04-24T01:55:31;19.73;;;13.88;;
65477;SDS011;53678;39.642;22.430;2023-04-24T01:58:02;20.98;;;14.52;;
65477;SDS011;53678;39.642;22.430;2023-04-24T02:00:29;20.38;;;15.48;;
65477;SDS011;53678;39.642;22.430;2023-04-24T02:02:55;17.27;;;13.75;;
65477;SDS011;53678;39.642;22.430;2023-04-24T02:05:21;21.05;;;14.93;;
65477;SDS011;53678;39.642;22.430;2023-04-24T02:07:51;17.38;;;14.95;;
65477;SDS011;53678;39.642;22.430;2023-04-24T02:10:20;21.77;;;14.98;;
65477;SDS011;53678;39.642;22.430;2023-04-24T02:12:46;20.60;;;13.98;;
65477;SDS011;53678;39.642;22.430;2023-04-24T02:15:15;24.02;;;15.15;;
65477;SDS011;53678;39.642;22.430;2023-04-24T02:17:41;21.05;;;14.82;;
65477;SDS011;53678;39.642;22.430;2023-04-24T02:20:10;18.92;;;13.60;;
65477;SDS011;53678;39.642;22.430;2023-04-24T02:22:37;22.20;;;13.75;;
65477;SDS011;53678;39.642;22.430;2023-04-24T02:25:03;21.83;;;13.88;;
65477;SDS011;53678;39.642;22.430;2023-04-24T02:27:30;21.02;;;12.52;;
65477;SDS011;53678;39.642;22.430;2023-04-24T02:29:56;18.20;;;12.70;;
65477;SDS011;53678;39.642;22.430;2023-04-24T02:32:21;13.85;;;10.82;;
65477;SDS011;53678;39.642;22.430;2023-04-24T02:34:47;20.15;;;10.80;;
65477;SDS011;53678;39.642;22.430;2023-04-24T02:37:13;18.00;;;11.20;;
65477;SDS011;53678;39.642;22.430;2023-04-24T02:39:39;14.25;;;10.30;;
65477;SDS011;53678;39.642;22.430;2023-04-24T02:42:04;17.75;;;10.50;;
65477;SDS011;53678;39.642;22.430;2023-04-24T02:44:31;16.88;;;10.18;;
65477;SDS011;53678;39.642;22.430;2023-04-24T02:46:57;13.57;;;10.65;;
65477;SDS011;53678;39.642;22.430;2023-04-24T02:49:23;14.68;;;10.25;;
65477;SDS011;53678;39.642;22.430;2023-04-24T02:51:49;18.30;;;11.43;;
65477;SDS011;53678;39.642;22.430;2023-04-24T02:54:15;19.30;;;11.48;;
65477;SDS011;53678;39.642;22.430;2023-04-24T02:56:41;15.50;;;11.10;;
65477;SDS011;53678;39.642;22.430;2023-04-24T02:59:07;19.15;;;11.25;;
65477;SDS011;53678;39.642;22.430;2023-04-24T03:01:34;21.45;;;12.15;;
65477;SDS011;53678;39.642;22.430;2023-04-24T03:03:59;25.38;;;12.63;;
65477;SDS011;53678;39.642;22.430;2023-04-24T03:06:25;24.58;;;13.65;;
65477;SDS011;53678;39.642;22.430;2023-04-24T03:08:52;21.85;;;13.95;;
65477;SDS011;53678;39.642;22.430;2023-04-24T03:11:18;25.70;;;14.55;;
65477;SDS011;53678;39.642;22.430;2023-04-24T03:13:44;17.10;;;11.98;;
65477;SDS011;53678;39.642;22.430;2023-04-24T03:16:11;15.77;;;11.30;;
65477;SDS011;53678;39.642;22.430;2023-04-24T03:18:37;16.63;;;12.48;;
65477;SDS011;53678;39.642;22.430;2023-04-24T03:21:04;22.52;;;13.48;;
65477;SDS011;53678;39.642;22.430;2023-04-24T03:23:31;25.63;;;13.35;;
65477;SDS011;53678;39.642;22.430;2023-04-24T03:25:57;19.65;;;11.95;;
65477;SDS011;53678;39.642;22.430;2023-04-24T03:28:24;22.33;;;12.27;;
65477;SDS011;53678;39.642;22.430;2023-04-24T03:31:02;22.38;;;13.95;;
65477;SDS011;53678;39.642;22.430;2023-04-24T03:33:32;24.75;;;15.10;;
65477;SDS011;53678;39.642;22.430;2023-04-24T03:36:00;28.02;;;15.18;;
65477;SDS011;53678;39.642;22.430;2023-04-24T03:38:32;35.07;;;15.77;;
65477;SDS011;53678;39.642;22.430;2023-04-24T03:41:20;19.70;;;14.13;;
65477;SDS011;53678;39.642;22.430;2023-04-24T03:43:51;19.35;;;13.35;;
65477;SDS011;53678;39.642;22.430;2023-04-24T03:46:16;21.92;;;13.40;;
65477;SDS011;53678;39.642;22.430;2023-04-24T03:48:49;25.10;;;13.73;;
65477;SDS011;53678;39.642;22.430;2023-04-24T03:51:17;25.10;;;14.77;;
65477;SDS011;53678;39.642;22.430;2023-04-24T03:53:46;21.88;;;13.02;;
65477;SDS011;53678;39.642;22.430;2023-04-24T03:56:16;26.73;;;14.70;;
65477;SDS011;53678;39.642;22.430;2023-04-24T03:58:43;23.90;;;14.20;;
65477;SDS011;53678;39.642;22.430;2023-04-24T04:01:09;25.25;;;14.55;;
65477;SDS011;53678;39.642;22.430;2023-04-24T04:03:51;28.17;;;14.68;;
65477;SDS011;53678;39.642;22.430;2023-04-24T04:06:22;23.20;;;14.75;;
65477;SDS011;53678;39.642;22.430;2023-04-24T04:08:50;22.83;;;13.60;;
65477;SDS011;53678;39.642;22.430;2023-04-24T04:11:18;20.98;;;13.23;;
65477;SDS011;53678;39.642;22.430;2023-04-24T04:13:45;23.42;;;13.32;;
65477;SDS011;53678;39.642;22.430;2023-04-24T04:16:15;24.92;;;13.77;;
65477;SDS011;53678;39.642;22.430;2023-04-24T04:18:45;18.92;;;12.27;;
65477;SDS011;53678;39.642;22.430;2023-04-24T04:21:12;29.92;;;12.70;;
65477;SDS011;53678;39.642;22.430;2023-04-24T04:23:39;24.75;;;12.65;;
65477;SDS011;53678;39.642;22.430;2023-04-24T04:26:27;20.83;;;11.98;;
65477;SDS011;53678;39.642;22.430;2023-04-24T04:29:06;20.20;;;11.30;;
65477;SDS011;53678;39.642;22.430;2023-04-24T04:31:35;20.52;;;10.65;;
65477;SDS011;53678;39.642;22.430;2023-04-24T04:34:06;15.07;;;10.00;;
65477;SDS011;53678;39.642;22.430;2023-04-24T04:36:34;12.43;;;9.93;;
65477;SDS011;53678;39.642;22.430;2023-04-24T04:39:12;14.90;;;9.85;;
65477;SDS011;53678;39.642;22.430;2023-04-24T04:41:48;14.10;;;10.45;;
65477;SDS011;53678;39.642;22.430;2023-04-24T04:44:16;35.83;;;14.15;;
65477;SDS011;53678;39.642;22.430;2023-04-24T04:46:42;23.65;;;12.80;;
65477;SDS011;53678;39.642;22.430;2023-04-24T04:49:27;21.33;;;11.98;;
65477;SDS011;53678;39.642;22.430;2023-04-24T04:51:54;22.30;;;13.07;;
65477;SDS011;53678;39.642;22.430;2023-04-24T04:54:21;19.10;;;12.43;;
65477;SDS011;53678;39.642;22.430;2023-04-24T04:56:50;20.80;;;12.90;;
65477;SDS011;53678;39.642;22.430;2023-04-24T04:59:17;22.33;;;13.30;;
65477;SDS011;53678;39.642;22.430;2023-04-24T05:04:50;16.88;;;11.82;;
65477;SDS011;53678;39.642;22.430;2023-04-24T05:07:16;12.82;;;10.60;;
65477;SDS011;53678;39.642;22.430;2023-04-24T05:09:49;13.73;;;11.40;;
65477;SDS011;53678;39.642;22.430;2023-04-24T05:12:15;18.55;;;11.77;;
65477;SDS011;53678;39.642;22.430;2023-04-24T05:17:14;18.20;;;11.30;;
65477;SDS011;53678;39.642;22.430;2023-04-24T05:19:40;21.17;;;11.02;;
65477;SDS011;53678;39.642;22.430;2023-04-24T05:22:07;13.52;;;10.70;;
65477;SDS011;53678;39.642;22.430;2023-04-24T05:24:40;14.63;;;9.75;;
65477;SDS011;53678;39.642;22.430;2023-04-24T05:27:14;14.55;;;9.15;;
65477;SDS011;53678;39.642;22.430;2023-04-24T05:29:40;12.65;;;8.82;;
65477;SDS011;53678;39.642;22.430;2023-04-24T05:32:07;12.68;;;8.60;;
65477;SDS011;53678;39.642;22.430;2023-04-24T05:34:36;18.02;;;9.25;;
65477;SDS011;53678;39.642;22.430;2023-04-24T05:37:02;13.73;;;8.52;;
65477;SDS011;53678;39.642;22.430;2023-04-24T05:39:28;14.38;;;9.15;;
65477;SDS011;53678;39.642;22.430;2023-04-24T05:41:54;14.55;;;8.50;;
65477;SDS011;53678;39.642;22.430;2023-04-24T05:44:23;11.77;;;8.77;;
65477;SDS011;53678;39.642;22.430;2023-04-24T05:46:49;12.27;;;8.80;;
65477;SDS011;53678;39.642;22.430;2023-04-24T05:49:15;14.77;;;9.00;;
65477;SDS011;53678;39.642;22.430;2023-04-24T05:51:42;12.10;;;7.82;;
65477;SDS011;53678;39.642;22.430;2023-04-24T05:54:08;21.80;;;9.57;;
65477;SDS011;53678;39.642;22.430;2023-04-24T05:56:37;12.07;;;8.80;;
65477;SDS011;53678;39.642;22.430;2023-04-24T05:59:05;11.18;;;7.85;;
65477;SDS011;53678;39.642;22.430;2023-04-24T06:01:31;14.32;;;8.52;;
65477;SDS011;53678;39.642;22.430;2023-04-24T06:04:05;17.05;;;9.30;;
65477;SDS011;53678;39.642;22.430;2023-04-24T06:06:32;15.27;;;8.07;;
65477;SDS011;53678;39.642;22.430;2023-04-24T06:09:00;11.20;;;8.18;;
65477;SDS011;53678;39.642;22.430;2023-04-24T06:11:29;13.07;;;8.00;;
65477;SDS011;53678;39.642;22.430;2023-04-24T06:13:58;14.85;;;8.43;;
65477;SDS011;53678;39.642;22.430;2023-04-24T06:16:36;12.70;;;8.85;;
65477;SDS011;53678;39.642;22.430;2023-04-24T06:19:13;13.25;;;8.50;;
65477;SDS011;53678;39.642;22.430;2023-04-24T06:21:40;17.05;;;10.15;;
65477;SDS011;53678;39.642;22.430;2023-04-24T06:24:07;13.27;;;8.48;;
65477;SDS011;53678;39.642;22.430;2023-04-24T06:26:33;17.45;;;8.93;;
65477;SDS011;53678;39.642;22.430;2023-04-24T06:28:59;13.70;;;7.05;;
65477;SDS011;53678;39.642;22.430;2023-04-24T06:31:25;9.80;;;7.57;;
65477;SDS011;53678;39.642;22.430;2023-04-24T06:33:53;11.05;;;7.78;;
65477;SDS011;53678;39.642;22.430;2023-04-24T06:36:19;10.43;;;6.85;;
65477;SDS011;53678;39.642;22.430;2023-04-24T06:38:45;13.98;;;6.95;;
65477;SDS011;53678;39.642;22.430;2023-04-24T06:41:11;12.43;;;8.35;;
65477;SDS011;53678;39.642;22.430;2023-04-24T06:43:36;11.23;;;7.55;;
65477;SDS011;53678;39.642;22.430;2023-04-24T06:46:07;11.80;;;7.07;;
65477;SDS011;53678;39.642;22.430;2023-04-24T06:48:33;13.85;;;7.28;;
65477;SDS011;53678;39.642;22.430;2023-04-24T06:51:02;8.73;;;6.55;;
65477;SDS011;53678;39.642;22.430;2023-04-24T06:53:29;11.02;;;6.55;;
65477;SDS011;53678;39.642;22.430;2023-04-24T06:55:55;10.05;;;6.63;;
65477;SDS011;53678;39.642;22.430;2023-04-24T06:58:22;12.75;;;7.70;;
65477;SDS011;53678;39.642;22.430;2023-04-24T07:00:51;12.65;;;7.10;;
65477;SDS011;53678;39.642;22.430;2023-04-24T07:03:18;11.15;;;7.60;;
65477;SDS011;53678;39.642;22.430;2023-04-24T07:05:45;10.30;;;7.00;;
65477;SDS011;53678;39.642;22.430;2023-04-24T07:08:11;11.00;;;6.35;;
65477;SDS011;53678;39.642;22.430;2023-04-24T07:10:38;13.98;;;7.88;;
65477;SDS011;53678;39.642;22.430;2023-04-24T07:13:04;10.48;;;7.57;;
65477;SDS011;53678;39.642;22.430;2023-04-24T07:15:32;10.98;;;6.80;;
65477;SDS011;53678;39.642;22.430;2023-04-24T07:17:59;12.02;;;7.47;;
65477;SDS011;53678;39.642;22.430;2023-04-24T07:20:25;10.32;;;6.85;;
65477;SDS011;53678;39.642;22.430;2023-04-24T07:22:51;12.70;;;7.00;;
65477;SDS011;53678;39.642;22.430;2023-04-24T07:25:19;8.45;;;6.30;;
65477;SDS011;53678;39.642;22.430;2023-04-24T07:27:46;12.30;;;6.18;;
65477;SDS011;53678;39.642;22.430;2023-04-24T07:30:14;11.52;;;7.00;;
65477;SDS011;53678;39.642;22.430;2023-04-24T07:32:41;10.95;;;6.50;;
65477;SDS011;53678;39.642;22.430;2023-04-24T07:35:06;14.52;;;7.35;;
65477;SDS011;53678;39.642;22.430;2023-04-24T07:37:35;13.25;;;6.93;;
65477;SDS011;53678;39.642;22.430;2023-04-24T07:40:01;11.38;;;6.00;;
65477;SDS011;53678;39.642;22.430;2023-04-24T07:42:27;7.97;;;6.32;;
65477;SDS011;53678;39.642;22.430;2023-04-24T07:44:56;10.32;;;6.05;;
65477;SDS011;53678;39.642;22.430;2023-04-24T07:47:22;9.60;;;5.28;;
65477;SDS011;53678;39.642;22.430;2023-04-24T07:49:49;7.32;;;6.00;;
65477;SDS011;53678;39.642;22.430;2023-04-24T07:52:15;9.85;;;5.80;;
65477;SDS011;53678;39.642;22.430;2023-04-24T07:54:40;9.45;;;6.15;;
65477;SDS011;53678;39.642;22.430;2023-04-24T07:57:09;7.30;;;5.90;;
65477;SDS011;53678;39.642;22.430;2023-04-24T07:59:35;7.25;;;6.00;;
65477;SDS011;53678;39.642;22.430;2023-04-24T08:02:01;9.85;;;6.25;;
65477;SDS011;53678;39.642;22.430;2023-04-24T08:04:26;9.07;;;6.55;;
65477;SDS011;53678;39.642;22.430;2023-04-24T08:06:52;8.55;;;5.68;;
65477;SDS011;53678;39.642;22.430;2023-04-24T08:09:18;10.27;;;5.25;;
65477;SDS011;53678;39.642;22.430;2023-04-24T08:11:44;7.18;;;5.82;;
65477;SDS011;53678;39.642;22.430;2023-04-24T08:14:10;8.07;;;5.75;;
65477;SDS011;53678;39.642;22.430;2023-04-24T08:16:37;7.78;;;5.68;;
65477;SDS011;53678;39.642;22.430;2023-04-24T08:19:03;9.07;;;5.28;;
65477;SDS011;53678;39.642;22.430;2023-04-24T08:21:31;6.57;;;4.93;;
65477;SDS011;53678;39.642;22.430;2023-04-24T08:24:00;9.07;;;5.15;;
65477;SDS011;53678;39.642;22.430;2023-04-24T08:26:30;10.52;;;5.70;;
65477;SDS011;53678;39.642;22.430;2023-04-24T08:28:57;9.65;;;6.75;;
65477;SDS011;53678;39.642;22.430;2023-04-24T08:31:22;8.50;;;5.50;;
65477;SDS011;53678;39.642;22.430;2023-04-24T08:33:50;9.40;;;6.30;;
65477;SDS011;53678;39.642;22.430;2023-04-24T08:36:16;7.60;;;5.03;;
65477;SDS011;53678;39.642;22.430;2023-04-24T08:38:45;8.40;;;4.97;;
65477;SDS011;53678;39.642;22.430;2023-04-24T08:41:12;9.13;;;5.00;;
65477;SDS011;53678;39.642;22.430;2023-04-24T08:43:47;9.03;;;5.60;;
65477;SDS011;53678;39.642;22.430;2023-04-24T08:46:13;7.43;;;5.55;;
65477;SDS011;53678;39.642;22.430;2023-04-24T08:48:42;10.68;;;6.60;;
65477;SDS011;53678;39.642;22.430;2023-04-24T08:51:10;7.75;;;6.00;;
65477;SDS011;53678;39.642;22.430;2023-04-24T08:53:37;8.70;;;6.15;;
65477;SDS011;53678;39.642;22.430;2023-04-24T08:56:04;9.60;;;5.88;;
65477;SDS011;53678;39.642;22.430;2023-04-24T08:58:31;8.13;;;5.75;;
65477;SDS011;53678;39.642;22.430;2023-04-24T09:00:58;8.15;;;5.60;;
65477;SDS011;53678;39.642;22.430;2023-04-24T09:03:27;9.43;;;5.40;;
65477;SDS011;53678;39.642;22.430;2023-04-24T09:05:53;9.32;;;5.15;;
65477;SDS011;53678;39.642;22.430;2023-04-24T09:08:21;7.70;;;5.25;;
65477;SDS011;53678;39.642;22.430;2023-04-24T09:10:50;6.35;;;5.25;;
65477;SDS011;53678;39.642;22.430;2023-04-24T09:13:15;8.90;;;5.10;;
65477;SDS011;53678;39.642;22.430;2023-04-24T09:15:44;6.88;;;4.93;;
65477;SDS011;53678;39.642;22.430;2023-04-24T09:18:10;8.63;;;5.15;;
65477;SDS011;53678;39.642;22.430;2023-04-24T09:23:32;8.55;;;4.93;;
65477;SDS011;53678;39.642;22.430;2023-04-24T09:25:59;6.90;;;5.25;;
65477;SDS011;53678;39.642;22.430;2023-04-24T09:31:17;7.03;;;5.43;;
65477;SDS011;53678;39.642;22.430;2023-04-24T09:33:55;8.65;;;4.80;;
65477;SDS011;53678;39.642;22.430;2023-04-24T09:39:08;8.40;;;4.68;;
65477;SDS011;53678;39.642;22.430;2023-04-24T09:41:58;6.85;;;5.07;;
65477;SDS011;53678;39.642;22.430;2023-04-24T09:44:26;7.60;;;4.88;;
65477;SDS011;53678;39.642;22.430;2023-04-24T09:46:54;6.57;;;5.00;;
65477;SDS011;53678;39.642;22.430;2023-04-24T09:49:23;5.65;;;4.38;;
65477;SDS011;53678;39.642;22.430;2023-04-24T09:52:02;5.35;;;4.00;;
65477;SDS011;53678;39.642;22.430;2023-04-24T09:54:29;6.20;;;4.30;;
65477;SDS011;53678;39.642;22.430;2023-04-24T09:56:54;8.30;;;4.20;;
65477;SDS011;53678;39.642;22.430;2023-04-24T09:59:22;7.18;;;4.20;;
65477;SDS011;53678;39.642;22.430;2023-04-24T10:01:48;5.88;;;4.00;;
65477;SDS011;53678;39.642;22.430;2023-04-24T10:04:15;5.70;;;4.75;;
65477;SDS011;53678;39.642;22.430;2023-04-24T10:06:46;5.75;;;4.45;;
65477;SDS011;53678;39.642;22.430;2023-04-24T10:09:14;5.50;;;4.40;;
65477;SDS011;53678;39.642;22.430;2023-04-24T10:11:46;6.93;;;4.50;;
65477;SDS011;53678;39.642;22.430;2023-04-24T10:14:19;5.20;;;4.47;;
65477;SDS011;53678;39.642;22.430;2023-04-24T10:16:47;5.30;;;3.97;;
65477;SDS011;53678;39.642;22.430;2023-04-24T10:19:14;5.95;;;4.50;;
65477;SDS011;53678;39.642;22.430;2023-04-24T10:21:47;7.28;;;4.38;;
65477;SDS011;53678;39.642;22.430;2023-04-24T10:24:13;5.95;;;4.45;;
65477;SDS011;53678;39.642;22.430;2023-04-24T10:26:41;5.68;;;4.30;;
65477;SDS011;53678;39.642;22.430;2023-04-24T10:29:10;5.93;;;4.30;;
65477;SDS011;53678;39.642;22.430;2023-04-24T10:31:42;8.93;;;4.75;;
65477;SDS011;53678;39.642;22.430;2023-04-24T10:34:11;6.65;;;5.13;;
65477;SDS011;53678;39.642;22.430;2023-04-24T10:36:40;6.05;;;4.72;;
65477;SDS011;53678;39.642;22.430;2023-04-24T10:39:11;5.30;;;4.10;;
65477;SDS011;53678;39.642;22.430;2023-04-24T10:41:41;7.93;;;4.47;;
65477;SDS011;53678;39.642;22.430;2023-04-24T10:44:13;5.75;;;3.88;;
65477;SDS011;53678;39.642;22.430;2023-04-24T10:46:45;7.38;;;4.55;;
65477;SDS011;53678;39.642;22.430;2023-04-24T10:49:15;7.15;;;4.10;;
65477;SDS011;53678;39.642;22.430;2023-04-24T10:54:27;6.03;;;3.80;;
65477;SDS011;53678;39.642;22.430;2023-04-24T10:57:25;7.05;;;4.60;;
65477;SDS011;53678;39.642;22.430;2023-04-24T11:00:10;7.45;;;3.47;;
65477;SDS011;53678;39.642;22.430;2023-04-24T11:02:45;7.13;;;3.53;;
65477;SDS011;53678;39.642;22.430;2023-04-24T11:05:15;5.63;;;4.00;;
65477;SDS011;53678;39.642;22.430;2023-04-24T11:10:53;5.70;;;3.85;;
65477;SDS011;53678;39.642;22.430;2023-04-24T11:13:27;7.15;;;3.20;;
65477;SDS011;53678;39.642;22.430;2023-04-24T11:19:01;8.52;;;4.13;;
65477;SDS011;53678;39.642;22.430;2023-04-24T11:35:03;5.15;;;3.17;;
65477;SDS011;53678;39.642;22.430;2023-04-24T11:37:36;4.57;;;3.00;;
65477;SDS011;53678;39.642;22.430;2023-04-24T11:40:04;5.65;;;3.00;;
65477;SDS011;53678;39.642;22.430;2023-04-24T11:42:35;7.97;;;2.72;;
65477;SDS011;53678;39.642;22.430;2023-04-24T11:45:06;4.53;;;2.75;;
65477;SDS011;53678;39.642;22.430;2023-04-24T11:48:03;3.00;;;2.45;;
65477;SDS011;53678;39.642;22.430;2023-04-24T11:50:29;5.75;;;2.50;;
65477;SDS011;53678;39.642;22.430;2023-04-24T11:52:55;5.15;;;2.83;;
65477;SDS011;53678;39.642;22.430;2023-04-24T11:57:48;4.00;;;3.05;;
65477;SDS011;53678;39.642;22.430;2023-04-24T12:00:20;4.75;;;2.80;;
65477;SDS011;53678;39.642;22.430;2023-04-24T12:02:47;3.53;;;2.53;;
65477;SDS011;53678;39.642;22.430;2023-04-24T12:05:23;3.63;;;2.10;;
65477;SDS011;53678;39.642;22.430;2023-04-24T12:07:52;2.83;;;1.83;;
65477;SDS011;53678;39.642;22.430;2023-04-24T12:10:22;4.53;;;2.45;;
65477;SDS011;53678;39.642;22.430;2023-04-24T12:12:50;9.68;;;2.88;;
65477;SDS011;53678;39.642;22.430;2023-04-24T12:15:17;4.22;;;2.95;;
65477;SDS011;53678;39.642;22.430;2023-04-24T12:17:47;4.22;;;2.40;;
65477;SDS011;53678;39.642;22.430;2023-04-24T12:20:15;3.50;;;2.40;;
65477;SDS011;53678;39.642;22.430;2023-04-24T12:22:43;7.88;;;2.72;;
65477;SDS011;53678;39.642;22.430;2023-04-24T12:25:20;8.55;;;2.53;;
65477;SDS011;53678;39.642;22.430;2023-04-24T12:27:54;6.57;;;2.80;;
65477;SDS011;53678;39.642;22.430;2023-04-24T12:30:44;3.60;;;2.03;;
65477;SDS011;53678;39.642;22.430;2023-04-24T12:33:20;4.80;;;2.22;;
65477;SDS011;53678;39.642;22.430;2023-04-24T12:35:48;6.82;;;2.58;;
65477;SDS011;53678;39.642;22.430;2023-04-24T12:38:21;4.15;;;2.17;;
65477;SDS011;53678;39.642;22.430;2023-04-24T12:41:00;3.05;;;1.90;;
65477;SDS011;53678;39.642;22.430;2023-04-24T12:43:28;2.75;;;1.95;;
65477;SDS011;53678;39.642;22.430;2023-04-24T12:45:55;2.70;;;1.90;;
65477;SDS011;53678;39.642;22.430;2023-04-24T12:48:22;4.43;;;2.45;;
65477;SDS011;53678;39.642;22.430;2023-04-24T12:50:48;4.45;;;2.08;;
65477;SDS011;53678;39.642;22.430;2023-04-24T12:53:14;4.20;;;2.03;;
65477;SDS011;53678;39.642;22.430;2023-04-24T12:55:41;4.45;;;2.25;;
65477;SDS011;53678;39.642;22.430;2023-04-24T12:58:10;6.18;;;1.95;;
65477;SDS011;53678;39.642;22.430;2023-04-24T13:00:36;4.68;;;2.78;;
65477;SDS011;53678;39.642;22.430;2023-04-24T13:03:04;4.60;;;2.40;;
65477;SDS011;53678;39.642;22.430;2023-04-24T13:05:30;3.08;;;1.88;;
65477;SDS011;53678;39.642;22.430;2023-04-24T13:07:57;4.65;;;2.25;;
65477;SDS011;53678;39.642;22.430;2023-04-24T13:10:26;3.67;;;1.92;;
65477;SDS011;53678;39.642;22.430;2023-04-24T13:12:52;3.30;;;2.13;;
65477;SDS011;53678;39.642;22.430;2023-04-24T13:15:18;3.88;;;2.20;;
65477;SDS011;53678;39.642;22.430;2023-04-24T13:17:45;3.50;;;1.85;;
65477;SDS011;53678;39.642;22.430;2023-04-24T13:20:12;3.22;;;2.10;;
65477;SDS011;53678;39.642;22.430;2023-04-24T13:22:38;6.93;;;2.53;;
65477;SDS011;53678;39.642;22.430;2023-04-24T13:25:03;3.20;;;2.10;;
65477;SDS011;53678;39.642;22.430;2023-04-24T13:27:31;3.67;;;2.40;;
65477;SDS011;53678;39.642;22.430;2023-04-24T13:29:56;3.97;;;2.30;;
65477;SDS011;53678;39.642;22.430;2023-04-24T13:32:22;5.55;;;2.13;;
65477;SDS011;53678;39.642;22.430;2023-04-24T13:34:48;4.25;;;2.53;;
65477;SDS011;53678;39.642;22.430;2023-04-24T13:37:14;2.53;;;2.00;;
65477;SDS011;53678;39.642;22.430;2023-04-24T13:39:41;4.45;;;2.08;;
65477;SDS011;53678;39.642;22.430;2023-04-24T13:42:08;5.15;;;2.17;;
65477;SDS011;53678;39.642;22.430;2023-04-24T13:44:34;3.90;;;2.35;;
65477;SDS011;53678;39.642;22.430;2023-04-24T13:47:03;4.72;;;2.42;;
65477;SDS011;53678;39.642;22.430;2023-04-24T13:49:29;3.53;;;2.20;;
65477;SDS011;53678;39.642;22.430;2023-04-24T13:51:55;4.60;;;2.25;;
65477;SDS011;53678;39.642;22.430;2023-04-24T13:54:21;4.07;;;2.40;;
65477;SDS011;53678;39.642;22.430;2023-04-24T13:56:51;6.68;;;2.20;;
65477;SDS011;53678;39.642;22.430;2023-04-24T13:59:19;6.57;;;2.28;;
65477;SDS011;53678;39.642;22.430;2023-04-24T14:01:46;7.22;;;2.30;;
65477;SDS011;53678;39.642;22.430;2023-04-24T14:04:15;3.70;;;2.45;;
65477;SDS011;53678;39.642;22.430;2023-04-24T14:06:43;3.17;;;2.00;;
65477;SDS011;53678;39.642;22.430;2023-04-24T14:09:09;5.95;;;2.42;;
65477;SDS011;53678;39.642;22.430;2023-04-24T14:11:36;3.65;;;2.20;;
65477;SDS011;53678;39.642;22.430;2023-04-24T14:14:02;4.63;;;2.38;;
65477;SDS011;53678;39.642;22.430;2023-04-24T14:16:28;3.65;;;2.10;;
65477;SDS011;53678;39.642;22.430;2023-04-24T14:18:55;4.20;;;2.30;;
65477;SDS011;53678;39.642;22.430;2023-04-24T14:21:22;6.20;;;2.25;;
65477;SDS011;53678;39.642;22.430;2023-04-24T14:23:47;4.22;;;2.08;;
65477;SDS011;53678;39.642;22.430;2023-04-24T14:26:14;4.20;;;2.22;;
65477;SDS011;53678;39.642;22.430;2023-04-24T14:28:41;3.38;;;2.00;;
65477;SDS011;53678;39.642;22.430;2023-04-24T14:31:07;6.93;;;2.60;;
65477;SDS011;53678;39.642;22.430;2023-04-24T14:33:36;2.58;;;2.00;;
65477;SDS011;53678;39.642;22.430;2023-04-24T14:36:02;4.15;;;2.38;;
65477;SDS011;53678;39.642;22.430;2023-04-24T14:38:29;6.05;;;3.15;;
65477;SDS011;53678;39.642;22.430;2023-04-24T14:40:56;6.38;;;3.35;;
65477;SDS011;53678;39.642;22.430;2023-04-24T14:43:22;5.38;;;3.53;;
65477;SDS011;53678;39.642;22.430;2023-04-24T14:45:48;6.88;;;4.00;;
65477;SDS011;53678;39.642;22.430;2023-04-24T14:48:14;5.72;;;3.90;;
65477;SDS011;53678;39.642;22.430;2023-04-24T14:50:39;7.95;;;4.13;;
65477;SDS011;53678;39.642;22.430;2023-04-24T14:53:07;9.40;;;4.25;;
65477;SDS011;53678;39.642;22.430;2023-04-24T14:55:35;7.95;;;4.50;;
65477;SDS011;53678;39.642;22.430;2023-04-24T14:58:03;8.25;;;3.95;;
65477;SDS011;53678;39.642;22.430;2023-04-24T15:00:30;7.32;;;4.53;;
65477;SDS011;53678;39.642;22.430;2023-04-24T15:02:56;7.85;;;4.40;;
65477;SDS011;53678;39.642;22.430;2023-04-24T15:05:22;7.05;;;4.20;;
65477;SDS011;53678;39.642;22.430;2023-04-24T15:07:50;5.47;;;4.13;;